createdAt,value
2022-08-12T00:02:25.823Z,102002.00
2022-08-12T00:13:05.271Z,102004.00
2022-08-12T00:23:45.989Z,101993.00
2022-08-12T00:34:24.635Z,101990.00
2022-08-12T00:44:48.806Z,101996.00
2022-08-12T00:55:11.020Z,101995.00
2022-08-12T01:05:52.194Z,101983.00
2022-08-12T01:16:17.483Z,101988.00
2022-08-12T01:26:43.085Z,101988.00
2022-08-12T01:37:05.711Z,101987.00
2022-08-12T01:47:39.446Z,101998.00
2022-08-12T01:58:13.148Z,101994.00
2022-08-12T02:09:01.457Z,101991.00
2022-08-12T02:19:40.301Z,101971.00
2022-08-12T02:30:04.938Z,101986.00
2022-08-12T02:40:29.247Z,101974.00
2022-08-12T02:50:54.186Z,101974.00
2022-08-12T03:01:17.402Z,101972.00
2022-08-12T03:11:45.444Z,101974.00
2022-08-12T03:22:14.778Z,101972.00
2022-08-12T03:32:41.558Z,101985.00
2022-08-12T03:43:24.791Z,101988.00
2022-08-12T03:54:05.419Z,101988.00
2022-08-12T04:04:28.272Z,101983.00
2022-08-12T04:14:52.476Z,101991.00
2022-08-12T04:25:14.767Z,101998.00
2022-08-12T04:35:38.125Z,101993.00
2022-08-12T04:46:00.318Z,101990.00
2022-08-12T04:56:25.636Z,101991.00
2022-08-12T05:06:47.650Z,101992.00
2022-08-12T05:17:10.557Z,101987.00
2022-08-12T05:27:32.204Z,101979.00
2022-08-12T05:38:15.553Z,101992.00
2022-08-12T05:48:37.160Z,101993.00
2022-08-12T05:59:01.377Z,101989.00
2022-08-12T06:09:26.387Z,101995.00
2022-08-12T06:20:26.868Z,102003.00
2022-08-12T06:30:37.966Z,102011.00
2022-08-12T06:41:20.276Z,102003.00
2022-08-12T06:51:41.933Z,102021.00
2022-08-12T07:02:22.627Z,102005.00
2022-08-12T07:12:45.241Z,102003.00
2022-08-12T07:23:08.232Z,102008.00
2022-08-12T07:33:31.221Z,102013.00
2022-08-12T07:44:02.475Z,102020.00
2022-08-12T07:54:26.467Z,102018.00
2022-08-12T08:05:00.642Z,102026.00
2022-08-12T08:15:38.647Z,102006.00
2022-08-12T08:26:06.256Z,101998.00
2022-08-12T08:36:28.031Z,102012.00
2022-08-12T08:46:51.753Z,102008.00
2022-08-12T08:57:13.262Z,102002.00
2022-08-12T09:07:59.474Z,101995.00
2022-08-12T09:29:12.295Z,101992.00
2022-08-12T09:40:03.241Z,101980.00
2022-08-12T09:50:25.066Z,101962.00
2022-08-12T10:00:51.928Z,101956.00
2022-08-12T10:12:11.437Z,101942.00
2022-08-12T10:22:17.196Z,101925.00
2022-08-12T10:32:59.620Z,101938.00
2022-08-12T10:43:55.312Z,101902.00
2022-08-12T10:54:21.785Z,101901.00
2022-08-12T11:04:49.917Z,101900.00
2022-08-12T11:15:19.468Z,101921.00
2022-08-12T11:25:57.381Z,101892.00
2022-08-12T11:36:22.463Z,101874.00
2022-08-12T11:46:44.609Z,101858.00
2022-08-12T11:58:07.411Z,101860.00
2022-08-12T12:08:40.947Z,101851.00
2022-08-12T12:18:39.317Z,101844.00
2022-08-12T12:29:01.222Z,101853.00
2022-08-12T12:39:26.754Z,101850.00
2022-08-12T12:49:48.727Z,101827.00
2022-08-12T13:00:18.509Z,101850.00
2022-08-12T13:10:50.364Z,101840.00
2022-08-12T13:21:32.863Z,101841.00
2022-08-12T13:32:18.904Z,101830.00
2022-08-12T13:42:51.096Z,101826.00
2022-08-12T13:53:26.206Z,101822.00
2022-08-12T14:03:57.863Z,101787.00
2022-08-12T14:14:19.378Z,101793.00
2022-08-12T14:24:42.356Z,101808.00
2022-08-12T14:35:09.698Z,101805.00
2022-08-12T14:45:44.430Z,101770.00
2022-08-12T15:06:55.139Z,101775.00
2022-08-12T15:17:37.388Z,101769.00
2022-08-12T15:28:04.132Z,101754.00
2022-08-12T15:38:28.234Z,101748.00
2022-08-12T15:48:52.239Z,101740.00
2022-08-12T15:59:15.552Z,101736.00
2022-08-12T16:10:04.848Z,101751.00
2022-08-12T16:20:32.996Z,101725.00
2022-08-12T16:30:57.163Z,101733.00
2022-08-12T16:41:19.163Z,101749.00
2022-08-12T16:51:46.936Z,101716.00
2022-08-12T17:02:10.867Z,101701.00
2022-08-12T17:12:37.657Z,101694.00
2022-08-12T17:23:01.634Z,101678.00
2022-08-12T17:33:35.908Z,101680.00
2022-08-12T17:44:01.558Z,101676.00
2022-08-12T17:54:24.994Z,101687.00
2022-08-12T18:05:04.558Z,101696.00
2022-08-12T18:16:05.287Z,101696.00
2022-08-12T18:26:29.978Z,101705.00
2022-08-12T18:36:55.859Z,101697.00
2022-08-12T18:47:20.803Z,101709.00
2022-08-12T18:57:45.654Z,101723.00
2022-08-12T19:08:32.057Z,101718.00
2022-08-12T19:18:56.604Z,101720.00
2022-08-12T19:29:22.220Z,101726.00
2022-08-12T19:40:09.366Z,101729.00
2022-08-12T19:50:40.456Z,101720.00
2022-08-12T20:01:27.195Z,101712.00
2022-08-12T20:12:11.726Z,101716.00
2022-08-12T20:22:43.515Z,101731.00
2022-08-12T20:33:32.272Z,101743.00
2022-08-12T20:44:17.077Z,101720.00
2022-08-12T20:54:41.223Z,101706.00
2022-08-12T21:06:11.700Z,101723.00
2022-08-12T21:27:59.502Z,101734.00
2022-08-12T21:38:34.279Z,101739.00
2022-08-12T21:49:07.098Z,101736.00
2022-08-12T21:59:32.070Z,101733.00
2022-08-12T22:09:59.246Z,101752.00
2022-08-12T22:20:34.121Z,101741.00
2022-08-12T22:31:18.574Z,101737.00
2022-08-12T22:42:08.482Z,101746.00
2022-08-12T22:52:33.568Z,101742.00
2022-08-12T23:02:58.378Z,101750.00
2022-08-12T23:13:43.936Z,101747.00
2022-08-12T23:24:10.228Z,101747.00
2022-08-12T23:34:37.396Z,101730.00
2022-08-12T23:45:08.898Z,101730.00
2022-08-12T23:55:40.430Z,101726.00
